createdAt,value
2022-10-15T00:02:17.658Z,16.25
2022-10-15T00:04:50.581Z,16.22
2022-10-15T00:07:24.203Z,16.22
2022-10-15T00:09:57.125Z,16.20
2022-10-15T00:12:31.358Z,16.19
2022-10-15T00:15:05.241Z,16.20
2022-10-15T00:17:39.064Z,16.20
2022-10-15T00:20:15.122Z,16.18
2022-10-15T00:22:48.069Z,16.20
2022-10-15T00:25:24.318Z,16.21
2022-10-15T00:27:58.571Z,16.20
2022-10-15T00:30:32.086Z,16.20
2022-10-15T00:33:08.628Z,16.16
2022-10-15T00:35:43.163Z,16.19
2022-10-15T00:38:16.246Z,16.32
2022-10-15T00:40:51.889Z,16.27
2022-10-15T00:43:41.243Z,16.23
2022-10-15T00:46:23.851Z,16.30
2022-10-15T00:51:40.898Z,16.29
2022-10-15T00:54:15.166Z,16.28
2022-10-15T00:56:53.069Z,16.24
2022-10-15T00:59:31.355Z,16.29
2022-10-15T01:02:07.840Z,16.23
2022-10-15T01:04:42.205Z,16.22
2022-10-15T01:09:52.699Z,16.25
2022-10-15T01:12:38.188Z,16.27
2022-10-15T01:15:20.896Z,16.28
2022-10-15T01:18:01.123Z,16.34
2022-10-15T01:21:02.588Z,16.34
2022-10-15T01:24:33.900Z,16.33
2022-10-15T01:27:25.089Z,16.29
2022-10-15T01:30:20.224Z,16.25
2022-10-15T01:33:38.164Z,16.24
2022-10-15T01:36:22.602Z,16.28
2022-10-15T01:39:09.510Z,16.15
2022-10-15T01:41:51.262Z,16.22
2022-10-15T01:44:35.949Z,16.20
2022-10-15T01:47:42.583Z,16.14
2022-10-15T01:50:21.856Z,16.18
2022-10-15T01:53:01.763Z,16.17
2022-10-15T01:55:39.065Z,16.14
2022-10-15T01:58:15.558Z,16.14
2022-10-15T02:00:53.147Z,16.13
2022-10-15T02:03:32.756Z,16.11
2022-10-15T02:06:16.778Z,16.07
2022-10-15T02:09:03.069Z,16.04
2022-10-15T02:11:50.156Z,16.00
2022-10-15T02:14:32.327Z,16.01
2022-10-15T02:17:18.133Z,15.99
2022-10-15T02:20:08.596Z,15.92
2022-10-15T02:22:48.880Z,15.99
2022-10-15T02:25:29.382Z,15.94
2022-10-15T02:28:06.461Z,15.91
2022-10-15T02:30:49.542Z,15.90
2022-10-15T02:33:26.743Z,15.88
2022-10-15T02:36:06.091Z,15.83
2022-10-15T02:38:46.715Z,15.85
2022-10-15T02:41:21.631Z,15.82
2022-10-15T02:44:04.538Z,15.83
2022-10-15T02:46:40.602Z,15.84
2022-10-15T02:49:21.153Z,15.87
2022-10-15T02:51:59.546Z,15.86
2022-10-15T02:54:34.129Z,15.83
2022-10-15T02:57:11.356Z,15.83
2022-10-15T02:59:48.447Z,15.80
2022-10-15T03:02:21.495Z,15.79
2022-10-15T03:04:56.447Z,15.76
2022-10-15T03:07:37.177Z,15.82
2022-10-15T03:10:13.430Z,15.73
2022-10-15T03:12:52.586Z,15.72
2022-10-15T03:15:28.588Z,15.75
2022-10-15T03:18:06.606Z,15.77
2022-10-15T03:20:46.019Z,15.69
2022-10-15T03:23:30.706Z,15.67
2022-10-15T03:26:25.040Z,15.67
2022-10-15T03:28:58.567Z,15.67
2022-10-15T03:31:51.445Z,15.67
2022-10-15T03:34:29.748Z,15.63
2022-10-15T03:37:03.165Z,15.65
2022-10-15T03:39:38.475Z,15.64
2022-10-15T03:42:17.691Z,15.63
2022-10-15T03:44:54.052Z,15.59
2022-10-15T03:47:27.695Z,15.59
2022-10-15T03:50:06.089Z,15.57
2022-10-15T03:52:43.188Z,15.60
2022-10-15T03:55:26.961Z,15.59
2022-10-15T03:58:09.227Z,15.58
2022-10-15T04:00:50.561Z,15.65
2022-10-15T04:03:27.558Z,15.70
2022-10-15T04:06:05.911Z,15.67
2022-10-15T04:08:42.868Z,15.69
2022-10-15T04:11:32.061Z,15.73
2022-10-15T04:14:13.175Z,15.77
2022-10-15T04:16:46.509Z,15.73
2022-10-15T04:19:33.216Z,15.77
2022-10-15T04:22:09.943Z,15.77
2022-10-15T04:24:49.363Z,15.79
2022-10-15T04:27:34.717Z,15.81
2022-10-15T04:30:20.827Z,15.84
2022-10-15T04:33:02.368Z,15.84
2022-10-15T04:35:40.212Z,15.84
2022-10-15T04:38:26.165Z,15.86
2022-10-15T04:41:09.142Z,15.84
2022-10-15T04:44:06.131Z,15.83
2022-10-15T04:46:55.367Z,15.83
2022-10-15T04:49:44.044Z,15.82
2022-10-15T04:52:46.804Z,15.83
2022-10-15T04:55:20.272Z,15.90
2022-10-15T04:57:55.554Z,15.85
2022-10-15T05:00:37.087Z,15.77
2022-10-15T05:03:38.577Z,15.81
2022-10-15T05:06:28.942Z,15.82
2022-10-15T05:09:17.834Z,15.84
2022-10-15T05:12:01.949Z,15.84
2022-10-15T05:14:59.476Z,15.86
2022-10-15T05:17:40.469Z,15.85
2022-10-15T05:20:25.743Z,15.82
2022-10-15T05:23:11.234Z,15.88
2022-10-15T05:25:54.040Z,15.86
2022-10-15T05:28:32.073Z,15.85
2022-10-15T05:31:21.255Z,15.83
2022-10-15T05:34:12.179Z,15.90
2022-10-15T05:37:07.693Z,15.87
2022-10-15T05:39:54.612Z,15.88
2022-10-15T05:45:32.088Z,15.95
2022-10-15T05:48:10.261Z,15.92
2022-10-15T05:50:51.959Z,15.90
2022-10-15T05:53:43.547Z,15.94
2022-10-15T05:56:29.093Z,15.91
2022-10-15T05:59:12.013Z,15.98
2022-10-15T06:01:51.730Z,16.01
2022-10-15T06:04:38.456Z,15.97
2022-10-15T06:07:13.337Z,16.02
2022-10-15T06:10:06.689Z,15.98
2022-10-15T06:12:50.705Z,15.98
2022-10-15T06:15:36.517Z,16.01
2022-10-15T06:18:30.047Z,16.06
2022-10-15T06:21:06.139Z,15.98
2022-10-15T06:24:09.203Z,16.01
2022-10-15T06:27:19.134Z,16.02
2022-10-15T06:29:56.916Z,16.07
2022-10-15T06:36:37.369Z,16.15
2022-10-15T06:39:44.358Z,16.16
2022-10-15T06:42:40.496Z,16.21
2022-10-15T06:45:37.841Z,16.10
2022-10-15T06:51:44.504Z,16.09
2022-10-15T06:54:22.612Z,16.09
2022-10-15T06:57:30.547Z,16.10
2022-10-15T07:00:07.966Z,16.09
2022-10-15T07:02:51.341Z,16.13
2022-10-15T07:05:26.982Z,16.20
2022-10-15T07:08:54.288Z,16.15
2022-10-15T07:11:32.605Z,16.10
2022-10-15T07:14:23.988Z,16.18
2022-10-15T07:17:05.172Z,16.10
2022-10-15T07:19:49.624Z,16.19
2022-10-15T07:22:49.979Z,16.19
2022-10-15T07:25:41.453Z,16.20
2022-10-15T07:28:22.144Z,16.23
2022-10-15T07:31:01.384Z,16.23
2022-10-15T07:33:57.616Z,16.25
2022-10-15T07:36:43.898Z,16.30
2022-10-15T07:39:27.221Z,16.24
2022-10-15T07:45:09.356Z,16.36
2022-10-15T07:47:45.565Z,16.38
2022-10-15T07:50:28.190Z,16.41
2022-10-15T07:53:11.577Z,16.45
2022-10-15T07:55:49.555Z,16.55
2022-10-15T07:58:24.593Z,16.57
2022-10-15T08:01:04.754Z,16.60
2022-10-15T08:03:45.547Z,16.71
2022-10-15T08:06:20.590Z,16.85
2022-10-15T08:08:56.934Z,16.91
2022-10-15T08:11:36.235Z,16.95
2022-10-15T08:14:27.642Z,17.02
2022-10-15T08:17:22.919Z,17.03
2022-10-15T08:20:06.612Z,17.02
2022-10-15T08:22:58.831Z,17.06
2022-10-15T08:25:37.237Z,17.14
2022-10-15T08:28:16.007Z,17.19
2022-10-15T08:30:49.325Z,17.24
2022-10-15T08:33:40.141Z,17.32
2022-10-15T08:36:13.101Z,17.34
2022-10-15T08:38:47.870Z,17.34
2022-10-15T08:41:32.585Z,17.32
2022-10-15T08:44:07.177Z,17.36
2022-10-15T08:46:45.633Z,17.40
2022-10-15T08:49:43.069Z,17.42
2022-10-15T08:52:24.037Z,17.41
2022-10-15T08:55:03.682Z,17.38
2022-10-15T08:57:50.534Z,17.43
2022-10-15T09:00:25.552Z,17.43
2022-10-15T09:03:06.550Z,17.43
2022-10-15T09:05:49.239Z,17.47
2022-10-15T09:08:29.809Z,17.44
2022-10-15T09:11:10.462Z,17.42
2022-10-15T09:13:45.463Z,17.46
2022-10-15T09:19:53.477Z,17.52
2022-10-15T09:22:28.733Z,17.52
2022-10-15T09:25:20.838Z,17.55
2022-10-15T09:28:05.185Z,17.58
2022-10-15T09:30:50.527Z,17.60
2022-10-15T09:33:43.692Z,17.67
2022-10-15T09:36:27.289Z,17.66
2022-10-15T09:39:40.641Z,17.71
2022-10-15T09:42:28.501Z,17.76
2022-10-15T09:45:18.778Z,17.77
2022-10-15T09:47:52.793Z,17.82
2022-10-15T09:50:26.360Z,17.84
2022-10-15T09:53:12.144Z,17.85
2022-10-15T09:55:53.490Z,17.86
2022-10-15T09:58:38.529Z,17.90
2022-10-15T10:01:21.451Z,17.95
2022-10-15T10:04:12.739Z,18.00
2022-10-15T10:06:52.171Z,17.99
2022-10-15T10:09:30.376Z,17.98
2022-10-15T10:13:16.637Z,18.01
2022-10-15T10:15:58.260Z,18.02
2022-10-15T10:18:51.778Z,18.03
2022-10-15T10:21:31.304Z,18.03
2022-10-15T10:24:30.634Z,18.03
2022-10-15T10:29:41.165Z,18.05
2022-10-15T10:32:22.568Z,18.07
2022-10-15T10:34:57.906Z,17.98
2022-10-15T10:37:44.388Z,18.07
2022-10-15T10:40:28.972Z,18.05
2022-10-15T10:43:20.076Z,18.03
2022-10-15T10:46:03.440Z,18.03
2022-10-15T10:48:44.484Z,18.10
2022-10-15T10:51:20.837Z,18.07
2022-10-15T10:54:06.769Z,18.09
2022-10-15T10:56:43.905Z,18.13
2022-10-15T10:59:24.757Z,18.13
2022-10-15T11:01:58.300Z,18.12
2022-10-15T11:04:34.770Z,18.16
2022-10-15T11:07:26.868Z,18.17
2022-10-15T11:10:14.472Z,18.18
2022-10-15T11:13:12.466Z,18.19
2022-10-15T11:15:56.700Z,18.19
2022-10-15T11:18:41.656Z,18.16
2022-10-15T11:21:23.782Z,18.24
2022-10-15T11:24:12.730Z,18.32
2022-10-15T11:27:11.892Z,18.31
2022-10-15T11:30:01.985Z,18.41
2022-10-15T11:33:06.793Z,18.42
2022-10-15T11:35:53.475Z,18.44
2022-10-15T11:38:37.031Z,18.42
2022-10-15T11:41:29.126Z,18.48
2022-10-15T11:44:28.130Z,18.53
2022-10-15T11:47:12.528Z,18.56
2022-10-15T11:49:57.176Z,18.52
2022-10-15T11:53:02.277Z,18.59
2022-10-15T11:55:42.290Z,18.53
2022-10-15T11:58:33.094Z,18.49
2022-10-15T12:01:16.673Z,18.52
2022-10-15T12:03:55.004Z,18.64
2022-10-15T12:06:36.673Z,18.58
2022-10-15T12:09:17.266Z,18.53
2022-10-15T12:11:55.967Z,18.65
2022-10-15T12:14:43.495Z,18.66
2022-10-15T12:17:25.028Z,18.68
2022-10-15T12:20:03.055Z,18.78
2022-10-15T12:22:39.469Z,18.72
2022-10-15T12:25:44.890Z,18.82
2022-10-15T12:28:21.492Z,18.84
2022-10-15T12:31:01.244Z,18.94
2022-10-15T12:33:37.698Z,18.94
2022-10-15T12:36:28.034Z,18.98
2022-10-15T12:39:11.503Z,19.02
2022-10-15T12:41:54.082Z,19.07
2022-10-15T12:44:31.634Z,19.05
2022-10-15T12:47:06.539Z,19.09
2022-10-15T12:49:59.108Z,19.17
2022-10-15T12:52:56.234Z,19.16
2022-10-15T12:55:32.275Z,19.11
2022-10-15T12:58:07.884Z,19.20
2022-10-15T13:00:43.042Z,19.25
2022-10-15T13:03:37.681Z,19.38
2022-10-15T13:06:31.829Z,19.41
2022-10-15T13:09:25.710Z,19.40
2022-10-15T13:12:03.143Z,19.38
2022-10-15T13:14:39.495Z,19.38
2022-10-15T13:17:23.577Z,19.42
2022-10-15T13:20:10.365Z,19.38
2022-10-15T13:22:58.431Z,19.42
2022-10-15T13:28:52.702Z,19.45
2022-10-15T13:31:30.721Z,19.44
2022-10-15T13:34:17.241Z,19.51
2022-10-15T13:37:34.687Z,19.47
2022-10-15T13:40:44.642Z,19.41
2022-10-15T13:43:26.523Z,19.40
2022-10-15T13:46:26.503Z,19.47
2022-10-15T13:49:01.627Z,19.51
2022-10-15T13:51:42.026Z,19.60
2022-10-15T13:54:28.941Z,19.50
2022-10-15T13:57:05.766Z,19.48
2022-10-15T13:59:57.516Z,19.51
2022-10-15T14:02:34.789Z,19.44
2022-10-15T14:05:17.689Z,19.52
2022-10-15T14:08:40.843Z,19.35
2022-10-15T14:11:26.577Z,19.41
2022-10-15T14:14:03.181Z,19.29
2022-10-15T14:16:42.968Z,19.29
2022-10-15T14:19:21.541Z,19.27
2022-10-15T14:22:02.445Z,19.25
2022-10-15T14:24:52.982Z,19.18
2022-10-15T14:27:38.915Z,19.18
2022-10-15T14:30:19.096Z,19.07
2022-10-15T14:33:18.839Z,19.10
2022-10-15T14:39:51.928Z,18.94
2022-10-15T14:42:33.985Z,18.89
2022-10-15T14:45:23.862Z,18.89
2022-10-15T14:48:32.552Z,18.86
2022-10-15T14:51:18.632Z,18.77
2022-10-15T14:54:06.284Z,18.68
2022-10-15T14:56:49.618Z,18.74
2022-10-15T14:59:31.226Z,18.75
2022-10-15T15:02:15.920Z,18.67
2022-10-15T15:05:08.151Z,18.56
2022-10-15T15:08:04.417Z,18.53
2022-10-15T15:10:40.102Z,18.60
2022-10-15T15:13:17.439Z,18.50
2022-10-15T15:15:53.662Z,18.47
2022-10-15T15:18:29.055Z,18.45
2022-10-15T15:21:10.208Z,18.45
2022-10-15T15:23:44.708Z,18.44
2022-10-15T15:26:18.039Z,18.11
2022-10-15T15:28:52.880Z,18.15
2022-10-15T15:31:36.008Z,18.06
2022-10-15T15:34:08.947Z,18.09
2022-10-15T15:36:45.100Z,18.20
2022-10-15T15:39:18.415Z,18.01
2022-10-15T15:42:02.094Z,17.98
2022-10-15T15:44:35.789Z,17.76
2022-10-15T15:47:12.970Z,17.79
2022-10-15T15:49:45.791Z,17.87
2022-10-15T15:52:19.055Z,17.80
2022-10-15T15:54:52.007Z,17.86
2022-10-15T15:57:24.928Z,17.80
2022-10-15T15:59:57.995Z,17.79
2022-10-15T16:02:32.092Z,17.68
2022-10-15T16:05:06.099Z,17.83
2022-10-15T16:07:38.957Z,17.81
2022-10-15T16:10:12.863Z,17.64
2022-10-15T16:12:45.753Z,17.59
2022-10-15T16:15:20.776Z,17.53
2022-10-15T16:17:54.828Z,17.43
2022-10-15T16:20:27.706Z,17.67
2022-10-15T16:23:00.583Z,17.38
2022-10-15T16:25:33.349Z,17.55
2022-10-15T16:28:06.442Z,17.50
2022-10-15T16:30:39.116Z,17.42
2022-10-15T16:33:13.441Z,17.43
2022-10-15T16:35:52.631Z,17.42
2022-10-15T16:38:25.782Z,17.44
2022-10-15T16:40:58.887Z,17.29
2022-10-15T16:43:31.588Z,17.54
2022-10-15T16:46:06.077Z,17.39
2022-10-15T16:48:41.291Z,17.50
2022-10-15T16:51:16.956Z,17.35
2022-10-15T16:53:52.442Z,17.40
2022-10-15T16:56:27.355Z,17.48
2022-10-15T16:59:00.572Z,17.42
2022-10-15T17:01:36.589Z,17.44
2022-10-15T17:04:16.353Z,17.43
2022-10-15T17:07:10.600Z,17.45
2022-10-15T17:09:53.453Z,17.42
2022-10-15T17:13:34.145Z,17.33
2022-10-15T17:20:01.492Z,17.43
2022-10-15T17:22:35.021Z,17.36
2022-10-15T17:25:08.540Z,17.28
2022-10-15T17:28:14.902Z,17.42
2022-10-15T17:30:48.063Z,17.30
2022-10-15T17:33:21.056Z,17.32
2022-10-15T17:35:55.406Z,17.27
2022-10-15T17:38:28.451Z,17.26
2022-10-15T17:41:01.740Z,17.39
2022-10-15T17:43:39.196Z,17.42
2022-10-15T17:46:15.920Z,17.35
2022-10-15T17:48:51.161Z,17.33
2022-10-15T17:51:29.240Z,17.37
2022-10-15T17:54:04.601Z,17.36
2022-10-15T17:56:38.537Z,17.37
2022-10-15T17:59:13.266Z,17.38
2022-10-15T18:01:58.454Z,17.32
2022-10-15T18:04:32.040Z,17.25
2022-10-15T18:07:06.914Z,17.32
2022-10-15T18:09:41.349Z,17.28
2022-10-15T18:12:16.509Z,17.26
2022-10-15T18:14:49.719Z,17.25
2022-10-15T18:17:27.971Z,17.23
2022-10-15T18:20:02.942Z,17.22
2022-10-15T18:22:37.486Z,17.19
2022-10-15T18:25:11.932Z,17.20
2022-10-15T18:27:45.189Z,17.18
2022-10-15T18:30:18.361Z,17.18
2022-10-15T18:32:53.242Z,17.19
2022-10-15T18:35:29.129Z,17.10
2022-10-15T18:38:03.664Z,17.18
2022-10-15T18:40:40.956Z,17.10
2022-10-15T18:43:17.435Z,17.08
2022-10-15T18:45:52.566Z,17.12
2022-10-15T18:48:29.322Z,17.17
2022-10-15T18:51:08.989Z,17.15
2022-10-15T18:53:49.513Z,17.07
2022-10-15T18:56:22.763Z,17.08
2022-10-15T18:58:55.879Z,17.03
2022-10-15T19:01:31.245Z,17.00
2022-10-15T19:04:05.654Z,17.12
2022-10-15T19:06:41.279Z,17.07
2022-10-15T19:09:18.166Z,17.05
2022-10-15T19:11:56.667Z,17.00
2022-10-15T19:14:31.611Z,17.06
2022-10-15T19:17:04.752Z,17.03
2022-10-15T19:19:38.626Z,17.00
2022-10-15T19:22:12.043Z,16.99
2022-10-15T19:24:46.492Z,17.02
2022-10-15T19:27:22.055Z,16.95
2022-10-15T19:29:55.719Z,16.88
2022-10-15T19:32:28.729Z,16.94
2022-10-15T19:35:01.968Z,16.90
2022-10-15T19:37:37.898Z,17.02
2022-10-15T19:40:12.477Z,16.86
2022-10-15T19:42:45.385Z,16.93
2022-10-15T19:45:18.315Z,16.90
2022-10-15T19:47:51.166Z,16.85
2022-10-15T19:50:26.977Z,16.89
2022-10-15T19:53:04.376Z,16.86
2022-10-15T19:55:40.214Z,16.75
2022-10-15T19:58:14.577Z,16.86
2022-10-15T20:00:52.558Z,16.81
2022-10-15T20:03:26.957Z,16.81
2022-10-15T20:05:59.967Z,16.77
2022-10-15T20:08:32.679Z,16.74
2022-10-15T20:11:09.190Z,16.78
2022-10-15T20:13:42.016Z,16.73
2022-10-15T20:16:16.657Z,16.74
2022-10-15T20:18:51.837Z,16.75
2022-10-15T20:21:26.858Z,16.77
2022-10-15T20:24:04.366Z,16.85
2022-10-15T20:26:39.854Z,16.74
2022-10-15T20:29:17.309Z,16.75
2022-10-15T20:31:51.387Z,16.75
2022-10-15T20:34:26.947Z,16.82
2022-10-15T20:36:59.789Z,16.81
2022-10-15T20:39:32.687Z,16.84
2022-10-15T20:42:07.442Z,16.73
2022-10-15T20:44:40.355Z,16.80
2022-10-15T20:47:15.265Z,16.72
2022-10-15T20:49:51.593Z,16.81
2022-10-15T20:52:25.428Z,16.81
2022-10-15T20:54:58.351Z,16.78
2022-10-15T20:57:33.268Z,16.80
2022-10-15T21:00:12.355Z,16.77
2022-10-15T21:02:49.755Z,16.80
2022-10-15T21:05:22.599Z,16.81
2022-10-15T21:07:58.404Z,16.81
2022-10-15T21:10:31.573Z,16.77
2022-10-15T21:13:05.685Z,16.78
2022-10-15T21:15:38.534Z,16.81
2022-10-15T21:18:11.448Z,16.84
2022-10-15T21:20:48.077Z,16.70
2022-10-15T21:23:21.303Z,16.72
2022-10-15T21:25:55.121Z,16.71
2022-10-15T21:28:45.305Z,16.76
2022-10-15T21:31:19.359Z,16.65
2022-10-15T21:33:53.057Z,16.70
2022-10-15T21:36:27.083Z,16.66
2022-10-15T21:39:03.129Z,16.66
2022-10-15T21:41:38.252Z,16.68
2022-10-15T21:44:12.479Z,16.67
2022-10-15T21:46:45.408Z,16.59
2022-10-15T21:49:18.440Z,16.51
2022-10-15T21:51:51.446Z,16.57
2022-10-15T21:54:24.625Z,16.48
2022-10-15T21:56:57.142Z,16.48
2022-10-15T21:59:31.685Z,16.44
2022-10-15T22:02:07.187Z,16.45
2022-10-15T22:04:40.351Z,16.48
2022-10-15T22:07:12.935Z,16.47
2022-10-15T22:09:46.745Z,16.44
2022-10-15T22:12:21.308Z,16.40
2022-10-15T22:14:55.593Z,16.40
2022-10-15T22:17:28.642Z,16.39
2022-10-15T22:20:04.153Z,16.35
2022-10-15T22:22:37.032Z,16.44
2022-10-15T22:25:10.023Z,16.30
2022-10-15T22:27:42.891Z,16.28
2022-10-15T22:30:17.783Z,16.37
2022-10-15T22:32:50.465Z,16.36
2022-10-15T22:35:23.195Z,16.38
2022-10-15T22:37:58.010Z,16.42
2022-10-15T22:40:30.967Z,16.33
2022-10-15T22:43:04.086Z,16.38
2022-10-15T22:45:38.158Z,16.41
2022-10-15T22:48:12.397Z,16.36
2022-10-15T22:50:45.150Z,16.35
2022-10-15T22:53:18.003Z,16.41
2022-10-15T22:55:56.292Z,16.37
2022-10-15T22:58:31.457Z,16.46
2022-10-15T23:01:11.353Z,16.38
2022-10-15T23:03:45.992Z,16.39
2022-10-15T23:06:21.166Z,16.41
2022-10-15T23:08:55.698Z,16.47
2022-10-15T23:11:30.373Z,16.39
2022-10-15T23:14:06.228Z,16.38
2022-10-15T23:16:42.378Z,16.39
2022-10-15T23:19:17.323Z,16.39
2022-10-15T23:21:51.811Z,16.38
2022-10-15T23:24:26.470Z,16.35
2022-10-15T23:26:59.553Z,16.36
2022-10-15T23:29:32.650Z,16.42
2022-10-15T23:32:07.291Z,16.36
2022-10-15T23:34:40.459Z,16.32
2022-10-15T23:37:13.548Z,16.36
2022-10-15T23:39:46.381Z,16.38
2022-10-15T23:42:19.320Z,16.39
2022-10-15T23:44:51.993Z,16.40
2022-10-15T23:47:26.900Z,16.38
2022-10-15T23:50:00.088Z,16.35
2022-10-15T23:52:33.330Z,16.32
2022-10-15T23:55:06.562Z,16.28
2022-10-15T23:57:39.339Z,16.28
